Time;durP1;ratioP1;P1;durP2;ratioP2;P2;SDS_P1;SDS_P2;PMS_P1;PMS_P2;Temp;Humidity;BMP_temperature;BMP_pressure;BME280_temperature;BME280_humidity;BME280_pressure;Samples;Min_cycle;Max_cycle;Signal;HPM_P1;HPM_P2
2022/11/18 00:09:59;;;;;;;1.92;1.00;;;8.80;99.90;;;;;;20609583;28;20177;-40
2022/11/18 00:20:00;;;;;;;1.67;0.80;;;8.80;99.90;;;;;;20593102;28;20047;-40
2022/11/18 00:30:02;;;;;;;1.85;1.08;;;8.70;99.90;;;;;;20608268;28;20038;-41
2022/11/18 00:40:03;;;;;;;2.63;1.38;;;8.70;99.90;;;;;;20579839;28;20788;-41
2022/11/18 00:50:04;;;;;;;2.28;1.13;;;8.60;99.90;;;;;;20608736;28;20077;-40
2022/11/18 01:00:06;;;;;;;1.60;0.95;;;8.60;99.90;;;;;;20601578;28;20140;-41
2022/11/18 01:10:08;;;;;;;3.83;1.70;;;8.60;99.90;;;;;;20597315;28;20118;-41
2022/11/18 01:20:09;;;;;;;1.92;0.90;;;8.50;99.90;;;;;;20603690;28;20116;-41
2022/11/18 01:30:11;;;;;;;2.20;1.17;;;8.40;99.90;;;;;;20607255;28;20065;-40
2022/11/18 01:40:12;;;;;;;3.92;1.38;;;8.40;99.90;;;;;;20603891;28;20180;-41
2022/11/18 01:50:15;;;;;;;2.15;1.13;;;8.40;99.90;;;;;;20617821;28;20077;-40
2022/11/18 02:00:16;;;;;;;3.85;1.48;;;8.40;99.90;;;;;;20619318;28;20232;-40
2022/11/18 02:10:21;;;;;;;3.42;1.40;;;8.40;99.90;;;;;;20616059;28;20122;-40
2022/11/18 02:20:36;;;;;;;1.75;0.70;;;8.30;99.90;;;;;;20617060;28;20145;-40
2022/11/18 02:30:49;;;;;;;3.38;1.27;;;8.30;99.90;;;;;;20607658;28;20220;-41
2022/11/18 02:41:10;;;;;;;5.47;1.15;;;8.30;99.90;;;;;;20612369;28;20709;-41
2022/11/18 02:51:14;;;;;;;3.00;1.63;;;8.20;99.90;;;;;;20607413;28;20133;-41
2022/11/18 03:01:23;;;;;;;8.30;2.47;;;8.20;99.90;;;;;;20594457;28;20545;-41
2022/11/18 03:11:28;;;;;;;2.67;1.05;;;8.20;99.90;;;;;;20607723;28;20085;-40
2022/11/18 03:21:36;;;;;;;3.50;1.75;;;8.10;99.90;;;;;;20606272;28;20565;-41
2022/11/18 03:31:49;;;;;;;5.93;2.22;;;8.10;99.90;;;;;;20606202;28;20050;-41
2022/11/18 03:42:01;;;;;;;3.63;1.67;;;8.10;99.90;;;;;;20605732;28;20178;-40
2022/11/18 03:52:09;;;;;;;2.70;1.83;;;8.10;99.90;;;;;;20613219;28;20156;-41
2022/11/18 04:02:15;;;;;;;3.63;1.63;;;8.10;99.90;;;;;;20613623;28;20106;-40
2022/11/18 04:12:19;;;;;;;5.90;2.50;;;8.00;99.90;;;;;;20610358;28;20057;-40
2022/11/18 04:22:20;;;;;;;3.75;1.85;;;8.00;99.90;;;;;;20621670;28;20258;-41
2022/11/18 04:32:21;;;;;;;8.38;2.60;;;8.00;99.90;;;;;;20620070;28;20758;-41
2022/11/18 04:42:22;;;;;;;7.40;2.15;;;8.00;99.90;;;;;;20612445;28;20055;-41
2022/11/18 04:52:23;;;;;;;3.25;1.50;;;8.00;99.90;;;;;;20612240;28;20027;-41
2022/11/18 05:02:24;;;;;;;4.85;3.00;;;8.00;99.90;;;;;;20613674;28;20053;-40
2022/11/18 05:22:46;;;;;;;4.78;1.77;;;8.00;99.90;;;;;;20598543;28;20946;-41
2022/11/18 05:32:47;;;;;;;5.53;2.05;;;8.00;99.90;;;;;;20601572;28;20712;-40
2022/11/18 05:53:08;;;;;;;2.60;1.38;;;8.20;99.90;;;;;;20637687;28;20057;-41
2022/11/18 06:03:16;;;;;;;4.00;2.25;;;8.20;99.90;;;;;;20611886;28;20073;-40
2022/11/18 06:13:30;;;;;;;3.85;1.63;;;8.20;99.90;;;;;;20621305;28;20125;-41
2022/11/18 06:23:35;;;;;;;4.65;1.85;;;8.30;99.90;;;;;;20621305;28;20121;-41
2022/11/18 06:33:36;;;;;;;3.47;1.88;;;8.30;99.90;;;;;;20608032;28;20129;-41
2022/11/18 06:43:37;;;;;;;3.40;1.15;;;8.20;99.90;;;;;;20617434;28;20042;-41
2022/11/18 06:53:38;;;;;;;3.90;1.73;;;8.20;99.90;;;;;;20626127;28;20567;-41
2022/11/18 07:03:41;;;;;;;2.90;1.40;;;8.30;99.90;;;;;;20613322;28;20193;-40
2022/11/18 07:13:42;;;;;;;3.25;1.15;;;8.20;99.90;;;;;;20616840;28;20130;-41
2022/11/18 07:23:44;;;;;;;6.20;1.15;;;8.20;99.90;;;;;;20593480;28;20142;-41
2022/11/18 07:33:46;;;;;;;2.75;1.83;;;8.30;99.90;;;;;;20602903;28;20121;-40
2022/11/18 07:43:49;;;;;;;3.60;1.73;;;8.30;99.90;;;;;;20615554;28;20878;-40
2022/11/18 07:53:50;;;;;;;2.67;1.45;;;8.40;99.90;;;;;;20616329;28;20045;-41
2022/11/18 08:03:51;;;;;;;4.88;3.13;;;8.30;99.90;;;;;;20636434;28;20664;-41
2022/11/18 08:13:52;;;;;;;3.30;1.92;;;8.40;99.90;;;;;;20624837;28;20500;-40
2022/11/18 08:23:55;;;;;;;5.88;2.05;;;8.40;99.90;;;;;;20614527;28;20049;-41
2022/11/18 08:34:01;;;;;;;5.68;2.17;;;8.60;99.90;;;;;;20641775;28;20068;-41
2022/11/18 08:44:03;;;;;;;3.47;1.00;;;8.80;99.90;;;;;;20632720;28;20081;-41
2022/11/18 08:54:04;;;;;;;1.90;1.27;;;8.70;99.90;;;;;;20630468;28;20109;-41
2022/11/18 09:04:05;;;;;;;12.98;2.80;;;8.70;99.90;;;;;;20610414;28;20050;-40
2022/11/18 09:14:09;;;;;;;3.47;1.02;;;8.60;99.90;;;;;;20630440;28;20049;-41
2022/11/18 09:24:10;;;;;;;5.97;2.33;;;8.60;99.90;;;;;;20615741;28;20509;-41
2022/11/18 09:34:11;;;;;;;4.40;1.65;;;8.70;99.90;;;;;;20619166;28;20062;-41
2022/11/18 09:44:33;;;;;;;2.83;1.70;;;8.90;99.90;;;;;;20626612;28;20061;-41
2022/11/18 09:54:36;;;;;;;4.13;1.58;;;8.90;99.90;;;;;;20622086;28;20112;-41
2022/11/18 10:04:37;;;;;;;2.50;1.08;;;9.00;99.90;;;;;;20622159;28;20042;-41
2022/11/18 10:14:41;;;;;;;3.80;1.75;;;9.10;99.90;;;;;;20618863;28;20046;-41
2022/11/18 10:24:47;;;;;;;3.00;1.33;;;9.30;99.90;;;;;;20590067;28;20168;-41
2022/11/18 10:34:54;;;;;;;1.63;1.03;;;9.60;99.90;;;;;;20606218;28;21899;-41
2022/11/18 10:45:23;;;;;;;4.50;1.85;;;9.60;99.90;;;;;;20625997;28;20050;-41
2022/11/18 10:55:29;;;;;;;15.23;3.05;;;9.60;99.90;;;;;;20613327;28;20112;-41
2022/11/18 11:05:30;;;;;;;5.70;1.80;;;9.70;99.90;;;;;;20624712;28;20038;-41
2022/11/18 11:15:42;;;;;;;6.75;3.20;;;9.60;99.90;;;;;;20616160;28;20039;-41
2022/11/18 11:25:55;;;;;;;6.25;2.10;;;9.40;99.90;;;;;;20614812;28;20494;-41
2022/11/18 11:36:04;;;;;;;2.10;1.13;;;9.40;99.90;;;;;;20612229;28;20632;-41
2022/11/18 11:46:25;;;;;;;3.17;1.38;;;9.40;99.90;;;;;;20608543;28;20140;-41
2022/11/18 11:56:34;;;;;;;3.80;1.50;;;9.50;99.90;;;;;;20604064;28;20138;-41
2022/11/18 12:06:35;;;;;;;6.35;3.08;;;9.60;99.90;;;;;;20600885;28;20375;-41
2022/11/18 12:16:45;;;;;;;6.22;3.85;;;9.70;99.90;;;;;;20639050;28;20045;-41
2022/11/18 12:26:48;;;;;;;7.22;4.22;;;10.00;99.90;;;;;;20620591;28;20859;-41
2022/11/18 12:36:49;;;;;;;7.80;3.17;;;10.10;99.90;;;;;;20612411;28;20883;-41
2022/11/18 12:46:52;;;;;;;4.20;2.53;;;10.20;99.90;;;;;;20613053;28;20392;-41
2022/11/18 12:56:56;;;;;;;10.52;3.47;;;10.20;99.90;;;;;;20617344;28;20915;-41
2022/11/18 13:06:59;;;;;;;6.28;3.03;;;10.20;99.90;;;;;;20625450;28;20429;-41
2022/11/18 13:27:37;;;;;;;6.93;2.80;;;10.30;99.90;;;;;;20641466;28;20577;-41
2022/11/18 13:37:52;;;;;;;5.72;2.92;;;10.20;99.90;;;;;;20627686;28;20132;-41
2022/11/18 13:47:57;;;;;;;6.55;2.75;;;10.30;99.90;;;;;;20586076;28;21434;-41
2022/11/18 13:58:03;;;;;;;7.88;4.03;;;10.30;99.90;;;;;;20546995;28;20046;-41
2022/11/18 14:08:06;;;;;;;6.80;4.00;;;10.30;99.90;;;;;;20617275;28;20112;-41
2022/11/18 14:18:23;;;;;;;5.85;3.28;;;10.10;99.90;;;;;;20627279;28;20124;-41
2022/11/18 14:28:29;;;;;;;18.67;4.07;;;10.10;99.90;;;;;;20623664;28;20544;-41
2022/11/18 14:38:36;;;;;;;6.78;3.65;;;10.00;99.90;;;;;;20627361;28;20449;-41
2022/11/18 14:48:37;;;;;;;8.10;3.70;;;9.70;99.90;;;;;;20613115;28;20088;-41
2022/11/18 14:58:38;;;;;;;5.20;2.90;;;9.60;99.90;;;;;;20588458;28;20128;-41
2022/11/18 15:08:41;;;;;;;7.85;3.20;;;9.60;99.90;;;;;;20602113;28;20150;-41
2022/11/18 15:18:44;;;;;;;4.10;2.33;;;9.60;99.90;;;;;;20571476;28;20049;-41
2022/11/18 15:28:50;;;;;;;4.88;2.05;;;9.70;99.90;;;;;;20628066;28;20833;-41
2022/11/18 15:38:52;;;;;;;5.82;3.13;;;9.70;99.90;;;;;;20595739;28;20145;-41
2022/11/18 15:48:54;;;;;;;6.22;2.95;;;9.60;99.90;;;;;;20614647;28;20581;-41
2022/11/18 15:58:58;;;;;;;11.77;4.15;;;9.60;99.90;;;;;;20595945;28;20196;-41
2022/11/18 16:08:59;;;;;;;4.45;2.63;;;9.50;99.90;;;;;;20605391;28;20153;-40
2022/11/18 16:19:03;;;;;;;7.53;3.42;;;9.40;99.90;;;;;;20609255;28;20122;-40
2022/11/18 16:29:06;;;;;;;7.18;3.95;;;9.30;99.90;;;;;;20607782;28;20046;-40
2022/11/18 16:39:12;;;;;;;4.65;3.20;;;9.30;99.90;;;;;;20614690;28;20042;-40
2022/11/18 16:49:15;;;;;;;9.52;3.22;;;9.30;99.90;;;;;;20616431;28;20500;-40
2022/11/18 16:59:20;;;;;;;8.25;5.18;;;9.30;99.90;;;;;;20640628;28;20046;-40
2022/11/18 17:09:23;;;;;;;8.23;4.18;;;9.20;99.90;;;;;;20609277;28;20038;-40
2022/11/18 17:19:24;;;;;;;7.28;4.57;;;9.30;99.90;;;;;;20641251;28;20081;-40
2022/11/18 17:29:25;;;;;;;8.13;4.13;;;9.30;99.90;;;;;;20611750;28;21239;-40
2022/11/18 17:39:26;;;;;;;10.50;4.90;;;9.30;99.90;;;;;;20616038;28;20094;-40
2022/11/18 17:49:27;;;;;;;8.82;4.68;;;9.30;99.90;;;;;;20608374;28;20038;-40
2022/11/18 17:59:28;;;;;;;8.60;4.75;;;9.30;99.90;;;;;;20635158;28;20143;-40
2022/11/18 18:09:29;;;;;;;8.65;4.93;;;9.20;99.90;;;;;;20619185;28;20589;-40
2022/11/18 18:19:32;;;;;;;12.05;4.45;;;9.30;99.90;;;;;;20613835;28;20423;-40
2022/11/18 18:29:33;;;;;;;8.48;5.20;;;9.20;99.90;;;;;;20620559;28;21042;-40
2022/11/18 18:39:34;;;;;;;9.88;4.63;;;9.20;99.90;;;;;;20612548;28;20050;-40
2022/11/18 18:49:35;;;;;;;10.00;5.60;;;9.20;99.90;;;;;;20609029;28;20037;-40
2022/11/18 18:59:36;;;;;;;8.20;5.47;;;9.20;99.90;;;;;;20604299;28;20044;-40
2022/11/18 19:09:37;;;;;;;7.90;4.45;;;9.20;99.90;;;;;;20617656;28;20149;-40
2022/11/18 19:30:00;;;;;;;11.80;5.50;;;9.20;99.90;;;;;;20601804;28;20844;-41
2022/11/18 19:40:03;;;;;;;8.13;5.22;;;9.20;99.90;;;;;;20599991;28;20050;-42
2022/11/18 19:50:05;;;;;;;7.95;4.90;;;9.10;99.90;;;;;;20606354;28;20054;-42
2022/11/18 20:00:07;;;;;;;7.97;4.80;;;9.10;99.90;;;;;;20608969;28;20515;-42
2022/11/18 20:10:09;;;;;;;9.38;5.05;;;9.00;99.90;;;;;;20608486;28;20137;-42
2022/11/18 20:20:10;;;;;;;7.18;3.53;;;8.70;99.90;;;;;;20601175;28;20125;-42
2022/11/18 20:30:11;;;;;;;9.52;5.35;;;8.60;99.90;;;;;;20615033;28;20130;-42
2022/11/18 20:40:12;;;;;;;8.07;4.20;;;8.40;99.90;;;;;;20612222;28;20053;-41
2022/11/18 20:50:15;;;;;;;10.43;4.95;;;8.20;99.90;;;;;;20601454;28;20183;-41
2022/11/18 21:00:17;;;;;;;12.18;6.13;;;8.00;99.90;;;;;;20591903;28;20070;-41
2022/11/18 21:10:21;;;;;;;6.82;4.80;;;7.70;99.90;;;;;;20607574;28;20046;-41
2022/11/18 21:30:41;;;;;;;11.60;5.38;;;7.40;99.90;;;;;;20616521;28;20038;-41
2022/11/18 21:40:42;;;;;;;11.18;6.43;;;7.20;99.90;;;;;;20598384;28;20046;-40
2022/11/18 21:50:43;;;;;;;8.65;5.70;;;6.80;99.90;;;;;;20570529;28;20310;-41
2022/11/18 22:00:44;;;;;;;6.10;3.80;;;6.60;99.90;;;;;;20577116;28;20038;-40
2022/11/18 22:10:46;;;;;;;8.82;5.70;;;6.50;99.90;;;;;;20561242;28;20642;-41
2022/11/18 22:20:46;;;;;;;9.98;5.80;;;6.40;99.90;;;;;;20560623;28;20885;-40
2022/11/18 22:30:49;;;;;;;12.75;5.80;;;6.30;99.90;;;;;;20573602;28;20089;-40
2022/11/18 22:40:58;;;;;;;18.30;7.38;;;6.00;99.90;;;;;;20550536;28;20125;-40
2022/11/18 22:51:04;;;;;;;10.20;5.10;;;5.80;99.90;;;;;;20560003;28;20128;-40
2022/11/18 23:01:06;;;;;;;16.07;6.80;;;6.00;99.90;;;;;;20563734;28;20099;-40
2022/11/18 23:11:13;;;;;;;10.90;6.22;;;5.70;99.90;;;;;;20568066;28;20138;-40
2022/11/18 23:21:14;;;;;;;14.35;6.65;;;5.60;99.90;;;;;;20542484;28;20098;-40
2022/11/18 23:31:20;;;;;;;13.55;6.40;;;5.50;99.90;;;;;;20559371;28;20144;-40
2022/11/18 23:41:21;;;;;;;10.77;7.07;;;5.30;99.90;;;;;;20606493;28;20134;-40
2022/11/18 23:51:24;;;;;;;10.70;6.47;;;5.20;99.90;;;;;;20622544;28;20097;-40
